createdAt,value
2019-05-21T03:48:29.445Z,8.83
2019-05-21T03:51:01.822Z,8.85
2019-05-21T03:53:36.787Z,8.85
2019-05-21T03:56:08.976Z,8.35
2019-05-21T03:58:40.055Z,8.90
2019-05-21T04:01:11.186Z,8.60
2019-05-21T04:03:42.340Z,9.15
2019-05-21T04:06:13.596Z,8.80
2019-05-21T04:08:44.684Z,8.65
2019-05-21T04:11:15.856Z,8.70
2019-05-21T04:13:46.980Z,9.30
2019-05-21T04:16:28.498Z,9.08
2019-05-21T04:19:04.074Z,8.38
2019-05-21T04:21:35.233Z,8.98
2019-05-21T04:24:09.097Z,9.35
2019-05-21T04:26:39.222Z,8.45
2019-05-21T04:29:10.385Z,7.83
2019-05-21T04:31:41.483Z,8.88
2019-05-21T04:34:12.612Z,9.90
2019-05-21T04:36:43.787Z,8.98
2019-05-21T04:39:14.922Z,9.68
2019-05-21T04:41:46.077Z,8.65
2019-05-21T04:44:17.199Z,8.45
2019-05-21T04:46:48.347Z,13.10
2019-05-21T04:49:19.514Z,12.28
2019-05-21T04:51:50.602Z,16.00
2019-05-21T04:54:21.803Z,10.05
2019-05-21T04:56:53.036Z,9.73
2019-05-21T04:59:24.248Z,9.23
2019-05-21T05:01:55.395Z,22.20
2019-05-21T05:04:26.570Z,11.88
2019-05-21T05:06:57.762Z,18.37
2019-05-21T05:09:28.871Z,14.98
2019-05-21T05:12:01.098Z,11.70
2019-05-21T05:14:32.479Z,9.20
2019-05-21T05:17:03.621Z,8.65
2019-05-21T05:19:34.737Z,7.87
2019-05-21T05:22:05.875Z,8.10
2019-05-21T05:24:37.273Z,8.15
2019-05-21T05:27:08.439Z,7.75
2019-05-21T05:29:39.587Z,8.43
2019-05-21T05:32:10.735Z,7.58
2019-05-21T05:34:41.851Z,7.50
2019-05-21T05:37:12.992Z,6.65
2019-05-21T05:39:44.085Z,7.05
2019-05-21T05:42:15.269Z,7.10
2019-05-21T05:44:46.401Z,6.47
2019-05-21T05:47:17.653Z,6.75
2019-05-21T05:49:50.333Z,6.75
2019-05-21T05:52:21.472Z,6.72
2019-05-21T05:54:53.942Z,6.08
2019-05-21T05:57:25.197Z,6.17
2019-05-21T05:59:56.290Z,5.67
2019-05-21T06:02:27.386Z,5.80
2019-05-21T06:04:58.552Z,6.30
2019-05-21T06:07:29.688Z,5.78
2019-05-21T06:10:00.818Z,5.97
2019-05-21T06:12:31.968Z,6.15
2019-05-21T06:15:03.654Z,5.30
2019-05-21T06:17:35.394Z,4.58
2019-05-21T06:20:08.050Z,5.10
2019-05-21T06:22:39.184Z,5.53
2019-05-21T06:25:11.671Z,5.33
2019-05-21T06:27:42.773Z,4.97
2019-05-21T06:30:14.240Z,5.58
2019-05-21T06:32:45.377Z,4.20
2019-05-21T06:35:16.656Z,4.67
2019-05-21T06:37:47.850Z,4.80
2019-05-21T06:40:19.994Z,4.92
2019-05-21T06:42:51.091Z,4.10
2019-05-21T06:45:22.507Z,3.70
2019-05-21T06:47:53.581Z,4.33
2019-05-21T06:50:24.729Z,3.98
2019-05-21T06:52:55.918Z,4.05
2019-05-21T06:55:27.141Z,2.90
2019-05-21T06:57:58.268Z,2.75
2019-05-21T07:00:29.376Z,1.92
2019-05-21T07:03:00.528Z,2.50
2019-05-21T07:05:30.588Z,3.20
2019-05-21T07:08:01.379Z,3.55
2019-05-21T07:10:32.507Z,2.37
2019-05-21T07:13:03.776Z,2.72
2019-05-21T07:15:34.929Z,2.92
2019-05-21T07:18:07.125Z,2.60
2019-05-21T07:20:38.257Z,2.80
2019-05-21T07:23:09.383Z,2.85
2019-05-21T07:25:40.493Z,2.98
2019-05-21T07:28:11.671Z,2.58
2019-05-21T07:30:42.778Z,2.80
2019-05-21T07:33:15.060Z,3.15
2019-05-21T07:35:46.236Z,3.17
2019-05-21T07:38:17.317Z,3.30
2019-05-21T07:40:52.496Z,3.08
2019-05-21T07:43:23.629Z,3.52
2019-05-21T07:45:54.933Z,3.92
2019-05-21T07:48:26.065Z,3.47
2019-05-21T07:50:57.159Z,3.55
2019-05-21T07:53:28.387Z,3.35
2019-05-21T07:55:59.506Z,3.72
2019-05-21T07:58:30.663Z,4.22
2019-05-21T08:01:01.960Z,3.90
2019-05-21T08:03:33.998Z,4.25
2019-05-21T08:06:05.291Z,3.67
2019-05-21T08:08:36.445Z,4.50
2019-05-21T08:11:07.563Z,4.12
2019-05-21T08:13:38.753Z,3.75
2019-05-21T08:16:10.210Z,3.50
2019-05-21T08:18:42.285Z,3.60
2019-05-21T08:21:13.989Z,3.70
2019-05-21T08:23:45.334Z,3.55
2019-05-21T08:26:16.532Z,3.85
2019-05-21T08:28:49.382Z,4.50
2019-05-21T08:31:20.999Z,4.30
2019-05-21T08:33:53.308Z,4.12
2019-05-21T08:36:25.215Z,4.53
2019-05-21T08:38:56.899Z,4.20
2019-05-21T08:41:30.290Z,3.98
2019-05-21T08:44:04.268Z,5.00
2019-05-21T08:46:35.802Z,3.85
2019-05-21T08:49:11.037Z,4.17
2019-05-21T08:51:43.778Z,3.30
2019-05-21T08:54:17.401Z,3.60
2019-05-21T08:56:48.615Z,2.90
2019-05-21T08:59:19.743Z,3.08
2019-05-21T09:01:50.961Z,2.72
2019-05-21T09:04:22.186Z,2.72
2019-05-21T09:06:53.309Z,2.85
2019-05-21T09:09:24.426Z,3.00
2019-05-21T09:11:55.588Z,3.02
2019-05-21T09:14:26.731Z,2.80
2019-05-21T09:16:57.810Z,2.70
2019-05-21T09:19:28.975Z,2.35
2019-05-21T09:22:00.072Z,2.70
2019-05-21T09:24:31.407Z,2.98
2019-05-21T09:27:02.851Z,2.70
2019-05-21T09:29:34.044Z,2.70
2019-05-21T09:32:05.140Z,2.80
2019-05-21T09:34:48.102Z,3.20
2019-05-21T09:37:19.671Z,3.22
2019-05-21T09:39:44.518Z,3.10
2019-05-21T09:42:15.649Z,2.70
2019-05-21T09:44:46.767Z,2.72
2019-05-21T09:47:17.858Z,3.15
2019-05-21T09:49:48.987Z,3.67
2019-05-21T09:52:20.316Z,3.85
2019-05-21T09:54:51.458Z,3.75
2019-05-21T09:57:24.166Z,3.90
2019-05-21T10:00:04.370Z,3.62
2019-05-21T10:02:36.179Z,3.40
2019-05-21T10:05:07.607Z,3.50
2019-05-21T10:07:40.518Z,3.10
2019-05-21T10:10:11.928Z,3.40
2019-05-21T10:12:44.885Z,3.52
2019-05-21T10:15:16.299Z,3.42
2019-05-21T10:17:47.706Z,3.62
2019-05-21T10:20:19.137Z,3.72
2019-05-21T10:22:50.502Z,3.37
2019-05-21T10:25:38.145Z,3.85
2019-05-21T10:28:09.732Z,3.42
2019-05-21T10:30:40.853Z,3.58
2019-05-21T10:33:12.093Z,3.45
2019-05-21T10:35:43.162Z,3.47
2019-05-21T10:38:14.283Z,3.55
2019-05-21T10:40:46.462Z,3.58
2019-05-21T10:43:19.189Z,4.03
2019-05-21T10:45:53.474Z,3.62
2019-05-21T10:48:25.778Z,3.37
2019-05-21T10:50:59.709Z,3.30
2019-05-21T10:53:55.878Z,3.52
2019-05-21T10:56:49.678Z,3.95
2019-05-21T10:59:27.253Z,3.37
2019-05-21T11:02:15.443Z,3.87
2019-05-21T11:04:59.621Z,3.52
2019-05-21T11:07:32.989Z,3.35
2019-05-21T11:10:07.382Z,3.62
2019-05-21T11:12:42.296Z,4.37
2019-05-21T11:15:13.867Z,4.58
2019-05-21T11:17:58.938Z,3.95
2019-05-21T11:20:18.539Z,3.72
2019-05-21T11:22:49.706Z,3.95
2019-05-21T11:25:23.358Z,3.58
2019-05-21T11:27:54.827Z,3.47
2019-05-21T11:30:25.921Z,3.60
2019-05-21T11:32:58.459Z,4.12
2019-05-21T11:35:29.584Z,3.70
2019-05-21T11:38:00.699Z,3.50
2019-05-21T11:40:33.350Z,3.02
2019-05-21T11:43:05.689Z,3.47
2019-05-21T11:45:39.578Z,2.90
2019-05-21T11:48:11.456Z,2.98
2019-05-21T11:50:42.608Z,3.00
2019-05-21T11:53:14.861Z,2.40
2019-05-21T11:55:46.266Z,3.10
2019-05-21T11:58:19.623Z,3.60
2019-05-21T12:00:51.308Z,3.40
2019-05-21T12:03:22.410Z,4.10
2019-05-21T12:05:53.505Z,3.08
2019-05-21T12:08:24.778Z,3.70
2019-05-21T12:10:56.005Z,2.50
2019-05-21T12:13:27.115Z,3.00
2019-05-21T12:15:58.218Z,4.85
2019-05-21T12:18:29.357Z,2.98
2019-05-21T12:21:00.799Z,2.75
2019-05-21T12:23:33.222Z,3.30
2019-05-21T12:26:04.740Z,3.20
2019-05-21T12:28:35.886Z,4.25
2019-05-21T12:31:07.055Z,4.00
2019-05-21T12:33:38.147Z,4.30
2019-05-21T12:36:09.415Z,3.30
2019-05-21T12:38:40.705Z,4.30
2019-05-21T12:41:13.834Z,4.90
2019-05-21T12:43:46.148Z,4.90
2019-05-21T12:46:17.504Z,5.67
2019-05-21T12:48:50.227Z,4.62
2019-05-21T12:51:22.559Z,4.50
2019-05-21T12:53:53.812Z,4.45
2019-05-21T12:56:25.102Z,3.70
2019-05-21T12:59:00.685Z,3.83
2019-05-21T13:01:30.604Z,3.42
2019-05-21T13:04:01.959Z,3.70
2019-05-21T13:06:33.541Z,3.60
2019-05-21T13:09:08.075Z,3.90
2019-05-21T13:11:39.797Z,3.72
2019-05-21T13:14:16.087Z,3.58
2019-05-21T13:16:44.045Z,3.27
2019-05-21T13:19:16.543Z,3.40
2019-05-21T13:21:50.487Z,4.28
2019-05-21T13:24:26.318Z,3.90
2019-05-21T13:27:00.973Z,4.40
2019-05-21T13:29:34.801Z,4.55
2019-05-21T13:32:08.220Z,4.33
2019-05-21T13:34:42.439Z,5.47
2019-05-21T13:37:16.834Z,5.40
2019-05-21T13:39:50.694Z,5.05
2019-05-21T13:42:25.695Z,4.72
2019-05-21T13:44:59.422Z,3.87
2019-05-21T13:47:35.011Z,5.92
2019-05-21T13:50:09.839Z,6.92
2019-05-21T13:52:41.509Z,6.22
2019-05-21T13:55:14.527Z,5.75
2019-05-21T13:57:46.870Z,6.33
2019-05-21T14:00:22.089Z,6.00
2019-05-21T14:02:54.224Z,4.60
2019-05-21T14:05:27.594Z,4.83
2019-05-21T14:08:01.060Z,4.47
2019-05-21T14:10:34.203Z,4.50
2019-05-21T14:13:07.363Z,4.17
2019-05-21T14:15:39.781Z,3.60
2019-05-21T14:18:13.476Z,3.65
2019-05-21T14:20:45.850Z,8.55
2019-05-21T14:23:17.730Z,4.30
2019-05-21T14:25:50.583Z,5.30
2019-05-21T14:28:23.271Z,8.50
2019-05-21T14:30:58.177Z,8.58
2019-05-21T14:33:33.363Z,4.75
2019-05-21T14:36:07.629Z,8.35
2019-05-21T14:38:39.714Z,5.03
2019-05-21T14:41:12.284Z,3.92
2019-05-21T14:43:45.817Z,5.95
2019-05-21T14:46:19.750Z,4.85
2019-05-21T14:48:52.907Z,5.72
2019-05-21T14:51:25.928Z,4.50
2019-05-21T14:54:00.426Z,5.28
2019-05-21T14:56:33.377Z,3.80
2019-05-21T14:59:08.571Z,3.98
2019-05-21T15:01:46.119Z,4.47
2019-05-21T15:04:18.725Z,5.72
2019-05-21T15:06:50.999Z,5.50
2019-05-21T15:09:24.387Z,4.10
2019-05-21T15:11:58.056Z,4.60
2019-05-21T15:14:30.252Z,5.67
2019-05-21T15:17:02.432Z,5.33
2019-05-21T15:19:35.423Z,5.33
2019-05-21T15:22:08.485Z,5.25
2019-05-21T15:24:42.208Z,6.15
2019-05-21T15:27:13.992Z,5.03
2019-05-21T15:29:47.324Z,3.83
2019-05-21T15:32:21.914Z,4.08
2019-05-21T15:34:54.627Z,3.72
2019-05-21T15:37:27.533Z,3.47
2019-05-21T15:39:59.991Z,4.08
2019-05-21T15:42:32.370Z,3.47
2019-05-21T15:45:05.310Z,2.95
2019-05-21T15:47:38.045Z,3.47
2019-05-21T15:50:11.257Z,3.62
2019-05-21T15:52:44.374Z,3.90
2019-05-21T15:55:20.202Z,4.42
2019-05-21T15:57:56.888Z,3.75
2019-05-21T16:00:29.617Z,5.00
2019-05-21T16:03:01.180Z,4.03
2019-05-21T16:05:33.502Z,3.50
2019-05-21T16:08:05.952Z,3.98
2019-05-21T16:10:37.373Z,4.20
2019-05-21T16:13:10.338Z,4.20
2019-05-21T16:15:44.834Z,3.65
2019-05-21T16:18:18.924Z,3.40
2019-05-21T16:20:54.809Z,4.12
2019-05-21T16:23:28.293Z,4.35
2019-05-21T16:26:00.665Z,4.12
2019-05-21T16:28:34.215Z,4.35
2019-05-21T16:31:08.494Z,4.45
2019-05-21T16:33:41.273Z,4.42
2019-05-21T16:36:15.193Z,6.33
2019-05-21T16:38:47.440Z,4.90
2019-05-21T16:41:24.566Z,5.17
2019-05-21T16:43:56.964Z,4.70
2019-05-21T16:46:30.655Z,4.75
2019-05-21T16:49:04.613Z,4.37
2019-05-21T16:51:39.571Z,4.75
2019-05-21T16:54:12.768Z,4.78
2019-05-21T16:56:45.970Z,5.10
2019-05-21T16:59:19.910Z,5.95
2019-05-21T17:16:56.206Z,7.08
2019-05-21T17:19:31.969Z,4.95
2019-05-21T17:22:07.582Z,5.60
2019-05-21T17:24:41.692Z,6.15
2019-05-21T17:27:19.705Z,8.13
2019-05-21T17:29:55.719Z,6.35
2019-05-21T17:32:29.644Z,8.55
2019-05-21T17:35:04.132Z,8.70
2019-05-21T17:37:38.563Z,7.90
2019-05-21T17:40:13.587Z,7.28
2019-05-21T17:42:49.225Z,7.95
2019-05-21T17:45:23.667Z,7.37
2019-05-21T17:47:58.171Z,7.53
2019-05-21T17:50:30.370Z,7.05
